sensor_id;sensor_type;location;lat;lon;timestamp;P1;durP1;ratioP1;P2;durP2;ratioP2
67344;SDS011;54230;52.402;6.276;2022-09-23T00:00:00;12.5;;;9.5;;
67344;SDS011;54230;52.402;6.276;2022-09-23T00:05:00;13.9;;;9.6;;
67344;SDS011;54230;52.402;6.276;2022-09-23T00:10:00;13.3;;;9.7;;
67344;SDS011;54230;52.402;6.276;2022-09-23T00:15:00;13.2;;;9.4;;
67344;SDS011;54230;52.402;6.276;2022-09-23T00:20:00;13.5;;;9.6;;
67344;SDS011;54230;52.402;6.276;2022-09-23T00:25:00;14.0;;;10.1;;
67344;SDS011;54230;52.402;6.276;2022-09-23T00:30:00;13.4;;;10.0;;
67344;SDS011;54230;52.402;6.276;2022-09-23T00:35:00;14.9;;;10.5;;
67344;SDS011;54230;52.402;6.276;2022-09-23T00:40:00;13.7;;;10.1;;
67344;SDS011;54230;52.402;6.276;2022-09-23T00:45:00;14.0;;;9.8;;
67344;SDS011;54230;52.402;6.276;2022-09-23T00:50:01;13.6;;;9.9;;
67344;SDS011;54230;52.402;6.276;2022-09-23T00:55:00;14.0;;;9.9;;
67344;SDS011;54230;52.402;6.276;2022-09-23T01:00:00;14.8;;;10.6;;
67344;SDS011;54230;52.402;6.276;2022-09-23T01:05:00;15.8;;;10.7;;
67344;SDS011;54230;52.402;6.276;2022-09-23T01:10:00;14.9;;;11.0;;
67344;SDS011;54230;52.402;6.276;2022-09-23T01:15:01;14.4;;;9.8;;
67344;SDS011;54230;52.402;6.276;2022-09-23T01:20:04;20.5;;;9.5;;
67344;SDS011;54230;52.402;6.276;2022-09-23T01:25:05;12.1;;;8.9;;
67344;SDS011;54230;52.402;6.276;2022-09-23T01:30:06;12.8;;;9.6;;
67344;SDS011;54230;52.402;6.276;2022-09-23T01:35:01;12.7;;;9.2;;
67344;SDS011;54230;52.402;6.276;2022-09-23T01:40:02;12.6;;;9.0;;
67344;SDS011;54230;52.402;6.276;2022-09-23T01:45:00;12.6;;;9.1;;
67344;SDS011;54230;52.402;6.276;2022-09-23T01:50:00;13.0;;;9.5;;
67344;SDS011;54230;52.402;6.276;2022-09-23T01:55:03;13.1;;;9.4;;
67344;SDS011;54230;52.402;6.276;2022-09-23T02:00:05;13.2;;;9.5;;
67344;SDS011;54230;52.402;6.276;2022-09-23T02:05:00;12.1;;;8.6;;
67344;SDS011;54230;52.402;6.276;2022-09-23T02:10:02;12.5;;;9.0;;
67344;SDS011;54230;52.402;6.276;2022-09-23T02:15:00;12.0;;;9.2;;
67344;SDS011;54230;52.402;6.276;2022-09-23T02:20:00;12.7;;;9.2;;
67344;SDS011;54230;52.402;6.276;2022-09-23T02:25:00;12.5;;;8.8;;
67344;SDS011;54230;52.402;6.276;2022-09-23T02:30:02;12.2;;;8.6;;
67344;SDS011;54230;52.402;6.276;2022-09-23T02:35:00;14.3;;;9.2;;
67344;SDS011;54230;52.402;6.276;2022-09-23T02:40:00;12.6;;;8.7;;
67344;SDS011;54230;52.402;6.276;2022-09-23T02:45:00;11.7;;;8.7;;
67344;SDS011;54230;52.402;6.276;2022-09-23T02:50:00;11.7;;;8.8;;
67344;SDS011;54230;52.402;6.276;2022-09-23T02:55:00;13.4;;;9.4;;
67344;SDS011;54230;52.402;6.276;2022-09-23T03:00:00;13.0;;;8.9;;
67344;SDS011;54230;52.402;6.276;2022-09-23T03:05:01;13.5;;;9.0;;
67344;SDS011;54230;52.402;6.276;2022-09-23T03:10:02;12.1;;;8.9;;
67344;SDS011;54230;52.402;6.276;2022-09-23T03:15:04;12.1;;;9.1;;
67344;SDS011;54230;52.402;6.276;2022-09-23T03:20:00;13.7;;;9.7;;
67344;SDS011;54230;52.402;6.276;2022-09-23T03:25:01;13.8;;;9.4;;
67344;SDS011;54230;52.402;6.276;2022-09-23T03:30:00;15.0;;;10.7;;
67344;SDS011;54230;52.402;6.276;2022-09-23T03:35:00;15.4;;;10.8;;
67344;SDS011;54230;52.402;6.276;2022-09-23T03:40:00;14.2;;;10.5;;
67344;SDS011;54230;52.402;6.276;2022-09-23T03:45:00;13.0;;;9.4;;
67344;SDS011;54230;52.402;6.276;2022-09-23T03:50:00;11.9;;;9.4;;
67344;SDS011;54230;52.402;6.276;2022-09-23T03:55:00;15.1;;;10.2;;
67344;SDS011;54230;52.402;6.276;2022-09-23T04:00:00;15.0;;;10.6;;
67344;SDS011;54230;52.402;6.276;2022-09-23T04:05:00;17.2;;;11.1;;
67344;SDS011;54230;52.402;6.276;2022-09-23T04:10:00;18.8;;;11.8;;
67344;SDS011;54230;52.402;6.276;2022-09-23T04:15:00;19.9;;;12.1;;
67344;SDS011;54230;52.402;6.276;2022-09-23T04:20:00;21.7;;;12.4;;
67344;SDS011;54230;52.402;6.276;2022-09-23T04:25:00;21.9;;;12.8;;
67344;SDS011;54230;52.402;6.276;2022-09-23T04:30:00;20.4;;;11.9;;
67344;SDS011;54230;52.402;6.276;2022-09-23T04:35:00;20.2;;;12.9;;
67344;SDS011;54230;52.402;6.276;2022-09-23T04:40:00;17.4;;;12.3;;
67344;SDS011;54230;52.402;6.276;2022-09-23T04:45:00;20.3;;;12.0;;
67344;SDS011;54230;52.402;6.276;2022-09-23T04:50:00;18.6;;;12.2;;
67344;SDS011;54230;52.402;6.276;2022-09-23T04:55:00;18.0;;;12.4;;
67344;SDS011;54230;52.402;6.276;2022-09-23T05:00:00;20.0;;;12.1;;
67344;SDS011;54230;52.402;6.276;2022-09-23T05:05:00;17.6;;;11.8;;
67344;SDS011;54230;52.402;6.276;2022-09-23T05:10:00;18.7;;;11.7;;
67344;SDS011;54230;52.402;6.276;2022-09-23T05:15:00;17.1;;;11.4;;
67344;SDS011;54230;52.402;6.276;2022-09-23T05:20:00;16.7;;;11.3;;
67344;SDS011;54230;52.402;6.276;2022-09-23T05:25:00;19.4;;;11.2;;
67344;SDS011;54230;52.402;6.276;2022-09-23T05:30:00;18.0;;;11.8;;
67344;SDS011;54230;52.402;6.276;2022-09-23T05:35:00;18.3;;;11.3;;
67344;SDS011;54230;52.402;6.276;2022-09-23T05:40:00;17.6;;;10.8;;
67344;SDS011;54230;52.402;6.276;2022-09-23T05:45:00;17.8;;;10.8;;
67344;SDS011;54230;52.402;6.276;2022-09-23T05:50:00;16.9;;;10.9;;
67344;SDS011;54230;52.402;6.276;2022-09-23T05:55:00;17.3;;;10.5;;
67344;SDS011;54230;52.402;6.276;2022-09-23T06:00:00;17.2;;;10.6;;
67344;SDS011;54230;52.402;6.276;2022-09-23T06:05:00;unavailable;;;unavailable;;
67344;SDS011;54230;52.402;6.276;2022-09-23T06:10:00;unavailable;;;unavailable;;
67344;SDS011;54230;52.402;6.276;2022-09-23T06:15:00;13.5;;;9.8;;
67344;SDS011;54230;52.402;6.276;2022-09-23T06:20:00;14.0;;;9.3;;
67344;SDS011;54230;52.402;6.276;2022-09-23T06:25:00;15.6;;;9.2;;
67344;SDS011;54230;52.402;6.276;2022-09-23T06:30:00;16.6;;;9.5;;
67344;SDS011;54230;52.402;6.276;2022-09-23T06:35:00;15.0;;;9.7;;
67344;SDS011;54230;52.402;6.276;2022-09-23T06:40:00;14.2;;;9.0;;
67344;SDS011;54230;52.402;6.276;2022-09-23T06:45:00;15.5;;;9.0;;
67344;SDS011;54230;52.402;6.276;2022-09-23T06:50:00;15.1;;;9.3;;
67344;SDS011;54230;52.402;6.276;2022-09-23T06:55:00;13.2;;;9.0;;
67344;SDS011;54230;52.402;6.276;2022-09-23T07:00:00;16.6;;;9.3;;
67344;SDS011;54230;52.402;6.276;2022-09-23T07:05:00;14.3;;;9.2;;
67344;SDS011;54230;52.402;6.276;2022-09-23T07:10:00;17.8;;;8.9;;
67344;SDS011;54230;52.402;6.276;2022-09-23T07:15:00;15.9;;;9.7;;
67344;SDS011;54230;52.402;6.276;2022-09-23T07:20:00;16.5;;;9.5;;
67344;SDS011;54230;52.402;6.276;2022-09-23T07:25:00;14.6;;;9.1;;
67344;SDS011;54230;52.402;6.276;2022-09-23T07:30:00;17.0;;;9.6;;
67344;SDS011;54230;52.402;6.276;2022-09-23T07:35:00;14.3;;;8.9;;
67344;SDS011;54230;52.402;6.276;2022-09-23T07:40:00;12.0;;;8.8;;
67344;SDS011;54230;52.402;6.276;2022-09-23T07:45:00;16.7;;;9.4;;
67344;SDS011;54230;52.402;6.276;2022-09-23T07:50:00;16.3;;;9.3;;
67344;SDS011;54230;52.402;6.276;2022-09-23T07:55:00;14.5;;;9.3;;
67344;SDS011;54230;52.402;6.276;2022-09-23T08:00:00;14.9;;;9.2;;
67344;SDS011;54230;52.402;6.276;2022-09-23T08:05:00;13.7;;;8.9;;
67344;SDS011;54230;52.402;6.276;2022-09-23T08:10:00;14.1;;;8.9;;
67344;SDS011;54230;52.402;6.276;2022-09-23T08:15:00;14.2;;;9.0;;
67344;SDS011;54230;52.402;6.276;2022-09-23T08:20:00;18.2;;;8.6;;
67344;SDS011;54230;52.402;6.276;2022-09-23T08:25:00;12.6;;;8.8;;
67344;SDS011;54230;52.402;6.276;2022-09-23T08:30:00;15.7;;;9.1;;
67344;SDS011;54230;52.402;6.276;2022-09-23T08:35:00;13.6;;;8.5;;
67344;SDS011;54230;52.402;6.276;2022-09-23T08:40:00;13.6;;;8.5;;
67344;SDS011;54230;52.402;6.276;2022-09-23T08:45:00;15.7;;;8.5;;
67344;SDS011;54230;52.402;6.276;2022-09-23T08:50:02;15.6;;;8.3;;
67344;SDS011;54230;52.402;6.276;2022-09-23T08:55:00;14.4;;;8.3;;
67344;SDS011;54230;52.402;6.276;2022-09-23T09:00:00;13.8;;;8.2;;
67344;SDS011;54230;52.402;6.276;2022-09-23T09:05:00;13.5;;;8.3;;
67344;SDS011;54230;52.402;6.276;2022-09-23T09:10:03;13.8;;;8.4;;
67344;SDS011;54230;52.402;6.276;2022-09-23T09:15:00;13.5;;;8.3;;
67344;SDS011;54230;52.402;6.276;2022-09-23T09:20:00;12.1;;;8.2;;
67344;SDS011;54230;52.402;6.276;2022-09-23T09:25:01;13.6;;;8.3;;
67344;SDS011;54230;52.402;6.276;2022-09-23T09:30:00;12.4;;;8.0;;
67344;SDS011;54230;52.402;6.276;2022-09-23T09:35:03;11.5;;;7.8;;
67344;SDS011;54230;52.402;6.276;2022-09-23T09:40:00;12.9;;;7.7;;
67344;SDS011;54230;52.402;6.276;2022-09-23T09:45:00;13.5;;;8.1;;
67344;SDS011;54230;52.402;6.276;2022-09-23T09:50:03;15.2;;;7.7;;
67344;SDS011;54230;52.402;6.276;2022-09-23T10:05:01;11.8;;;7.1;;
67344;SDS011;54230;52.402;6.276;2022-09-23T10:10:10;13.3;;;7.5;;
67344;SDS011;54230;52.402;6.276;2022-09-23T10:15:00;11.1;;;7.7;;
67344;SDS011;54230;52.402;6.276;2022-09-23T10:20:00;11.6;;;7.7;;
67344;SDS011;54230;52.402;6.276;2022-09-23T10:25:01;12.8;;;7.5;;
67344;SDS011;54230;52.402;6.276;2022-09-23T10:30:00;12.2;;;7.8;;
67344;SDS011;54230;52.402;6.276;2022-09-23T10:35:02;12.4;;;7.5;;
67344;SDS011;54230;52.402;6.276;2022-09-23T10:40:00;10.8;;;7.4;;
67344;SDS011;54230;52.402;6.276;2022-09-23T10:45:00;10.8;;;7.0;;
67344;SDS011;54230;52.402;6.276;2022-09-23T10:55:03;11.9;;;6.9;;
67344;SDS011;54230;52.402;6.276;2022-09-23T11:00:00;11.5;;;7.2;;
67344;SDS011;54230;52.402;6.276;2022-09-23T11:05:04;10.2;;;6.7;;
67344;SDS011;54230;52.402;6.276;2022-09-23T11:10:07;11.6;;;6.6;;
67344;SDS011;54230;52.402;6.276;2022-09-23T11:15:08;9.4;;;6.8;;
67344;SDS011;54230;52.402;6.276;2022-09-23T11:20:05;11.6;;;7.1;;
67344;SDS011;54230;52.402;6.276;2022-09-23T11:25:03;10.2;;;6.7;;
67344;SDS011;54230;52.402;6.276;2022-09-23T11:30:01;11.1;;;6.6;;
67344;SDS011;54230;52.402;6.276;2022-09-23T11:35:02;11.9;;;6.7;;
67344;SDS011;54230;52.402;6.276;2022-09-23T11:40:00;10.5;;;6.8;;
67344;SDS011;54230;52.402;6.276;2022-09-23T11:45:01;11.5;;;6.6;;
67344;SDS011;54230;52.402;6.276;2022-09-23T11:50:01;14.1;;;6.7;;
67344;SDS011;54230;52.402;6.276;2022-09-23T11:55:00;12.0;;;6.7;;
67344;SDS011;54230;52.402;6.276;2022-09-23T12:00:00;11.7;;;6.3;;
67344;SDS011;54230;52.402;6.276;2022-09-23T12:05:01;12.1;;;6.9;;
67344;SDS011;54230;52.402;6.276;2022-09-23T12:10:01;10.5;;;6.8;;
67344;SDS011;54230;52.402;6.276;2022-09-23T12:15:01;13.2;;;6.7;;
67344;SDS011;54230;52.402;6.276;2022-09-23T12:20:04;12.1;;;7.0;;
67344;SDS011;54230;52.402;6.276;2022-09-23T12:25:05;11.9;;;6.9;;
67344;SDS011;54230;52.402;6.276;2022-09-23T12:30:00;13.6;;;6.9;;
67344;SDS011;54230;52.402;6.276;2022-09-23T12:35:00;12.1;;;6.9;;
67344;SDS011;54230;52.402;6.276;2022-09-23T12:40:03;11.4;;;6.9;;
67344;SDS011;54230;52.402;6.276;2022-09-23T12:50:00;13.3;;;7.8;;
67344;SDS011;54230;52.402;6.276;2022-09-23T12:55:24;12.0;;;7.5;;
67344;SDS011;54230;52.402;6.276;2022-09-23T13:05:08;11.6;;;6.8;;
67344;SDS011;54230;52.402;6.276;2022-09-23T13:10:05;14.5;;;7.2;;
67344;SDS011;54230;52.402;6.276;2022-09-23T13:15:03;13.5;;;6.5;;
67344;SDS011;54230;52.402;6.276;2022-09-23T13:20:01;14.1;;;6.8;;
67344;SDS011;54230;52.402;6.276;2022-09-23T13:25:00;12.0;;;6.6;;
67344;SDS011;54230;52.402;6.276;2022-09-23T13:30:02;12.7;;;6.7;;
67344;SDS011;54230;52.402;6.276;2022-09-23T13:35:02;11.0;;;6.2;;
67344;SDS011;54230;52.402;6.276;2022-09-23T13:40:08;11.0;;;6.4;;
67344;SDS011;54230;52.402;6.276;2022-09-23T13:45:00;11.6;;;6.7;;
67344;SDS011;54230;52.402;6.276;2022-09-23T13:50:00;13.3;;;6.1;;
67344;SDS011;54230;52.402;6.276;2022-09-23T13:55:00;10.2;;;6.0;;
67344;SDS011;54230;52.402;6.276;2022-09-23T14:00:00;9.1;;;5.7;;
67344;SDS011;54230;52.402;6.276;2022-09-23T14:05:08;11.1;;;5.6;;
67344;SDS011;54230;52.402;6.276;2022-09-23T14:10:00;11.2;;;5.5;;
67344;SDS011;54230;52.402;6.276;2022-09-23T14:15:00;9.3;;;5.5;;
67344;SDS011;54230;52.402;6.276;2022-09-23T14:20:00;9.3;;;5.3;;
67344;SDS011;54230;52.402;6.276;2022-09-23T14:25:00;9.4;;;5.2;;
67344;SDS011;54230;52.402;6.276;2022-09-23T14:30:00;13.7;;;5.4;;
67344;SDS011;54230;52.402;6.276;2022-09-23T14:35:04;9.8;;;5.4;;
67344;SDS011;54230;52.402;6.276;2022-09-23T14:40:00;8.9;;;5.1;;
67344;SDS011;54230;52.402;6.276;2022-09-23T14:45:00;8.8;;;5.2;;
67344;SDS011;54230;52.402;6.276;2022-09-23T14:50:00;7.5;;;4.5;;
67344;SDS011;54230;52.402;6.276;2022-09-23T14:55:00;9.5;;;4.8;;
67344;SDS011;54230;52.402;6.276;2022-09-23T15:00:06;8.0;;;5.0;;
67344;SDS011;54230;52.402;6.276;2022-09-23T15:10:00;8.3;;;4.7;;
67344;SDS011;54230;52.402;6.276;2022-09-23T15:15:00;8.5;;;4.9;;
67344;SDS011;54230;52.402;6.276;2022-09-23T15:20:01;11.1;;;5.2;;
67344;SDS011;54230;52.402;6.276;2022-09-23T15:25:09;8.6;;;4.7;;
67344;SDS011;54230;52.402;6.276;2022-09-23T15:30:01;10.2;;;5.0;;
67344;SDS011;54230;52.402;6.276;2022-09-23T15:35:00;10.2;;;5.3;;
67344;SDS011;54230;52.402;6.276;2022-09-23T15:40:00;9.6;;;5.1;;
67344;SDS011;54230;52.402;6.276;2022-09-23T15:45:00;9.7;;;5.4;;
67344;SDS011;54230;52.402;6.276;2022-09-23T15:50:00;11.2;;;5.8;;
67344;SDS011;54230;52.402;6.276;2022-09-23T15:55:00;13.1;;;6.0;;
67344;SDS011;54230;52.402;6.276;2022-09-23T16:00:00;11.7;;;5.6;;
67344;SDS011;54230;52.402;6.276;2022-09-23T16:05:00;10.8;;;6.3;;
67344;SDS011;54230;52.402;6.276;2022-09-23T16:10:00;12.0;;;6.7;;
67344;SDS011;54230;52.402;6.276;2022-09-23T16:15:00;11.7;;;6.5;;
67344;SDS011;54230;52.402;6.276;2022-09-23T16:20:00;12.6;;;6.9;;
67344;SDS011;54230;52.402;6.276;2022-09-23T16:25:00;13.4;;;6.6;;
67344;SDS011;54230;52.402;6.276;2022-09-23T16:30:00;14.3;;;7.2;;
67344;SDS011;54230;52.402;6.276;2022-09-23T16:35:00;14.3;;;7.5;;
67344;SDS011;54230;52.402;6.276;2022-09-23T16:40:00;16.0;;;7.6;;
67344;SDS011;54230;52.402;6.276;2022-09-23T16:45:00;15.0;;;7.6;;
67344;SDS011;54230;52.402;6.276;2022-09-23T16:50:00;15.2;;;7.4;;
67344;SDS011;54230;52.402;6.276;2022-09-23T16:55:00;13.0;;;7.4;;
67344;SDS011;54230;52.402;6.276;2022-09-23T17:00:00;15.0;;;7.4;;
67344;SDS011;54230;52.402;6.276;2022-09-23T17:05:00;14.8;;;7.8;;
67344;SDS011;54230;52.402;6.276;2022-09-23T17:10:00;14.1;;;7.8;;
67344;SDS011;54230;52.402;6.276;2022-09-23T17:15:00;15.4;;;8.4;;
67344;SDS011;54230;52.402;6.276;2022-09-23T17:20:00;16.3;;;8.4;;
67344;SDS011;54230;52.402;6.276;2022-09-23T17:25:00;17.3;;;8.7;;
67344;SDS011;54230;52.402;6.276;2022-09-23T17:30:00;15.7;;;9.3;;
67344;SDS011;54230;52.402;6.276;2022-09-23T17:35:00;19.3;;;9.6;;
67344;SDS011;54230;52.402;6.276;2022-09-23T17:40:00;16.0;;;9.6;;
67344;SDS011;54230;52.402;6.276;2022-09-23T17:45:00;17.1;;;10.2;;
67344;SDS011;54230;52.402;6.276;2022-09-23T17:50:00;17.2;;;10.7;;
67344;SDS011;54230;52.402;6.276;2022-09-23T17:55:00;36.6;;;16.8;;
67344;SDS011;54230;52.402;6.276;2022-09-23T18:00:00;19.2;;;10.9;;
67344;SDS011;54230;52.402;6.276;2022-09-23T18:05:00;20.9;;;10.9;;
67344;SDS011;54230;52.402;6.276;2022-09-23T18:10:00;32.2;;;19.4;;
67344;SDS011;54230;52.402;6.276;2022-09-23T18:15:00;20.2;;;11.0;;
67344;SDS011;54230;52.402;6.276;2022-09-23T18:20:00;18.7;;;11.5;;
67344;SDS011;54230;52.402;6.276;2022-09-23T18:25:00;22.8;;;11.9;;
67344;SDS011;54230;52.402;6.276;2022-09-23T18:30:00;18.8;;;11.7;;
67344;SDS011;54230;52.402;6.276;2022-09-23T18:35:00;25.8;;;15.4;;
67344;SDS011;54230;52.402;6.276;2022-09-23T18:40:00;24.6;;;13.5;;
67344;SDS011;54230;52.402;6.276;2022-09-23T18:45:00;25.6;;;15.1;;
67344;SDS011;54230;52.402;6.276;2022-09-23T18:50:00;24.5;;;15.8;;
67344;SDS011;54230;52.402;6.276;2022-09-23T18:55:00;28.3;;;16.7;;
67344;SDS011;54230;52.402;6.276;2022-09-23T19:00:00;28.5;;;17.8;;
67344;SDS011;54230;52.402;6.276;2022-09-23T19:05:00;33.5;;;19.8;;
67344;SDS011;54230;52.402;6.276;2022-09-23T19:10:00;37.2;;;18.6;;
67344;SDS011;54230;52.402;6.276;2022-09-23T19:15:00;29.0;;;16.8;;
67344;SDS011;54230;52.402;6.276;2022-09-23T19:20:00;22.6;;;13.2;;
67344;SDS011;54230;52.402;6.276;2022-09-23T19:25:00;19.2;;;12.1;;
67344;SDS011;54230;52.402;6.276;2022-09-23T19:30:00;20.1;;;11.4;;
67344;SDS011;54230;52.402;6.276;2022-09-23T19:35:00;20.1;;;11.9;;
67344;SDS011;54230;52.402;6.276;2022-09-23T19:40:00;21.6;;;13.2;;
67344;SDS011;54230;52.402;6.276;2022-09-23T19:45:00;19.3;;;12.2;;
67344;SDS011;54230;52.402;6.276;2022-09-23T19:50:00;19.4;;;11.8;;
67344;SDS011;54230;52.402;6.276;2022-09-23T19:55:00;19.0;;;11.8;;
67344;SDS011;54230;52.402;6.276;2022-09-23T20:00:00;23.2;;;13.0;;
67344;SDS011;54230;52.402;6.276;2022-09-23T20:05:00;23.1;;;13.3;;
67344;SDS011;54230;52.402;6.276;2022-09-23T20:10:00;23.8;;;14.3;;
67344;SDS011;54230;52.402;6.276;2022-09-23T20:15:00;21.7;;;14.8;;
67344;SDS011;54230;52.402;6.276;2022-09-23T20:20:00;23.3;;;15.2;;
67344;SDS011;54230;52.402;6.276;2022-09-23T20:25:00;24.8;;;15.5;;
67344;SDS011;54230;52.402;6.276;2022-09-23T20:30:00;27.7;;;16.6;;
67344;SDS011;54230;52.402;6.276;2022-09-23T20:35:00;27.8;;;17.2;;
67344;SDS011;54230;52.402;6.276;2022-09-23T20:40:00;28.0;;;17.8;;
67344;SDS011;54230;52.402;6.276;2022-09-23T20:45:00;28.3;;;18.5;;
67344;SDS011;54230;52.402;6.276;2022-09-23T20:50:00;27.8;;;18.4;;
67344;SDS011;54230;52.402;6.276;2022-09-23T20:55:00;30.4;;;18.9;;
67344;SDS011;54230;52.402;6.276;2022-09-23T21:00:00;30.4;;;19.1;;
67344;SDS011;54230;52.402;6.276;2022-09-23T21:05:00;29.8;;;18.9;;
67344;SDS011;54230;52.402;6.276;2022-09-23T21:10:00;30.9;;;19.2;;
67344;SDS011;54230;52.402;6.276;2022-09-23T21:15:00;31.2;;;19.4;;
67344;SDS011;54230;52.402;6.276;2022-09-23T21:20:00;31.0;;;19.5;;
67344;SDS011;54230;52.402;6.276;2022-09-23T21:25:00;29.9;;;18.5;;
67344;SDS011;54230;52.402;6.276;2022-09-23T21:30:00;32.5;;;20.0;;
67344;SDS011;54230;52.402;6.276;2022-09-23T21:35:00;32.4;;;19.4;;
67344;SDS011;54230;52.402;6.276;2022-09-23T21:40:00;33.5;;;19.3;;
67344;SDS011;54230;52.402;6.276;2022-09-23T21:45:00;30.7;;;18.5;;
67344;SDS011;54230;52.402;6.276;2022-09-23T21:50:00;30.8;;;19.8;;
67344;SDS011;54230;52.402;6.276;2022-09-23T21:55:00;31.9;;;20.6;;
67344;SDS011;54230;52.402;6.276;2022-09-23T22:00:00;33.5;;;20.0;;
67344;SDS011;54230;52.402;6.276;2022-09-23T22:05:00;31.1;;;20.0;;
67344;SDS011;54230;52.402;6.276;2022-09-23T22:10:00;33.5;;;19.9;;
67344;SDS011;54230;52.402;6.276;2022-09-23T22:15:00;32.6;;;20.2;;
67344;SDS011;54230;52.402;6.276;2022-09-23T22:20:00;33.4;;;20.6;;
67344;SDS011;54230;52.402;6.276;2022-09-23T22:25:00;32.7;;;20.9;;
67344;SDS011;54230;52.402;6.276;2022-09-23T22:30:00;33.4;;;20.8;;
67344;SDS011;54230;52.402;6.276;2022-09-23T22:35:00;34.0;;;20.7;;
67344;SDS011;54230;52.402;6.276;2022-09-23T22:40:00;32.8;;;21.0;;
67344;SDS011;54230;52.402;6.276;2022-09-23T22:45:00;34.5;;;21.0;;
67344;SDS011;54230;52.402;6.276;2022-09-23T22:50:00;38.2;;;21.4;;
67344;SDS011;54230;52.402;6.276;2022-09-23T22:55:00;36.7;;;20.7;;
67344;SDS011;54230;52.402;6.276;2022-09-23T23:00:00;33.0;;;20.2;;
67344;SDS011;54230;52.402;6.276;2022-09-23T23:05:00;34.6;;;21.1;;
67344;SDS011;54230;52.402;6.276;2022-09-23T23:10:00;33.4;;;20.3;;
67344;SDS011;54230;52.402;6.276;2022-09-23T23:15:00;34.5;;;20.4;;
67344;SDS011;54230;52.402;6.276;2022-09-23T23:20:00;33.6;;;20.8;;
67344;SDS011;54230;52.402;6.276;2022-09-23T23:25:00;35.6;;;20.9;;
67344;SDS011;54230;52.402;6.276;2022-09-23T23:30:00;35.6;;;21.0;;
67344;SDS011;54230;52.402;6.276;2022-09-23T23:35:00;33.3;;;20.9;;
67344;SDS011;54230;52.402;6.276;2022-09-23T23:40:00;34.2;;;20.8;;
67344;SDS011;54230;52.402;6.276;2022-09-23T23:45:00;35.1;;;20.8;;
67344;SDS011;54230;52.402;6.276;2022-09-23T23:50:00;34.6;;;21.5;;
67344;SDS011;54230;52.402;6.276;2022-09-23T23:55:00;34.4;;;21.5;;
